Time;durP1;ratioP1;P1;durP2;ratioP2;P2;SDS_P1;SDS_P2;PMS_P1;PMS_P2;Temp;Humidity;BMP_temperature;BMP_pressure;BME280_temperature;BME280_humidity;BME280_pressure;Samples;Min_cycle;Max_cycle;Signal;HPM_P1;HPM_P2
2021/11/22 00:00:54;;;;;;;34.03;30.20;;;6.10;99.90;;;;;;4973357;28;20486;-72
2021/11/22 00:03:21;;;;;;;30.97;27.97;;;6.20;99.90;;;;;;4973402;28;20458;-72
2021/11/22 00:05:48;;;;;;;32.87;29.60;;;6.20;99.90;;;;;;4973359;28;20450;-72
2021/11/22 00:08:15;;;;;;;33.40;29.73;;;6.30;99.90;;;;;;4973271;28;20822;-72
2021/11/22 00:10:42;;;;;;;33.00;29.30;;;6.30;99.90;;;;;;4973170;28;20463;-72
2021/11/22 00:13:11;;;;;;;34.97;28.97;;;6.30;99.90;;;;;;4973093;28;20459;-72
2021/11/22 00:15:38;;;;;;;33.27;29.87;;;6.40;99.90;;;;;;4973299;28;20574;-72
2021/11/22 00:18:05;;;;;;;34.87;31.17;;;6.30;99.90;;;;;;4972845;28;20884;-71
2021/11/22 00:20:32;;;;;;;37.60;30.90;;;6.40;99.90;;;;;;4973083;28;20469;-72
2021/11/22 00:22:59;;;;;;;38.80;32.03;;;6.40;99.90;;;;;;4973304;28;20824;-72
2021/11/22 00:25:26;;;;;;;34.90;29.60;;;6.40;99.90;;;;;;4972747;28;20465;-72
2021/11/22 00:27:53;;;;;;;36.30;29.70;;;6.40;99.90;;;;;;4972761;28;20549;-72
2021/11/22 00:30:21;;;;;;;33.00;28.90;;;6.40;99.90;;;;;;4972635;28;20516;-72
2021/11/22 00:32:48;;;;;;;34.93;29.97;;;6.50;99.90;;;;;;4972192;28;20793;-72
2021/11/22 00:35:15;;;;;;;32.80;28.17;;;6.50;99.90;;;;;;4972953;28;20453;-72
2021/11/22 00:37:44;;;;;;;34.63;29.17;;;6.60;99.90;;;;;;4972320;28;20965;-71
2021/11/22 00:40:13;;;;;;;33.83;30.10;;;6.60;99.90;;;;;;4972522;28;20462;-71
2021/11/22 00:42:43;;;;;;;42.07;32.20;;;6.60;99.90;;;;;;4972480;28;20498;-72
2021/11/22 00:45:10;;;;;;;33.27;29.53;;;6.50;99.90;;;;;;4972514;28;20464;-70
2021/11/22 00:47:38;;;;;;;35.03;29.90;;;6.60;99.90;;;;;;4972502;28;20460;-71
2021/11/22 00:50:05;;;;;;;36.30;31.00;;;6.60;99.90;;;;;;4972285;28;20527;-72
2021/11/22 00:52:32;;;;;;;34.47;30.27;;;6.70;99.90;;;;;;4972555;28;20451;-72
2021/11/22 00:54:59;;;;;;;34.30;30.40;;;6.70;99.90;;;;;;4972456;28;20461;-71
2021/11/22 00:57:25;;;;;;;33.90;30.60;;;6.80;99.90;;;;;;4972543;28;20461;-71
2021/11/22 00:59:52;;;;;;;35.93;28.97;;;6.80;99.90;;;;;;4972278;28;20454;-72
2021/11/22 01:02:19;;;;;;;32.67;29.20;;;6.80;99.90;;;;;;4972214;28;20487;-71
2021/11/22 01:04:47;;;;;;;38.67;30.93;;;6.80;99.90;;;;;;4972280;28;20452;-72
2021/11/22 01:07:14;;;;;;;34.17;29.87;;;6.80;99.90;;;;;;4972585;28;20827;-72
2021/11/22 01:09:40;;;;;;;30.73;27.40;;;6.80;99.90;;;;;;4972199;28;20455;-72
2021/11/22 01:12:08;;;;;;;31.20;27.90;;;6.90;99.90;;;;;;4972128;28;20934;-71
2021/11/22 01:14:36;;;;;;;34.23;30.57;;;6.80;99.90;;;;;;4971947;28;20449;-72
2021/11/22 01:17:03;;;;;;;33.63;30.13;;;6.80;99.90;;;;;;4971991;28;20462;-73
2021/11/22 01:19:30;;;;;;;31.80;28.57;;;6.80;99.90;;;;;;4972345;28;20452;-72
2021/11/22 01:21:58;;;;;;;34.23;29.03;;;6.70;99.90;;;;;;4971776;28;20491;-72
2021/11/22 01:24:25;;;;;;;34.73;30.10;;;6.70;99.90;;;;;;4972189;28;20462;-72
2021/11/22 01:26:52;;;;;;;34.00;29.87;;;6.70;99.90;;;;;;4971946;28;20741;-73
2021/11/22 01:29:18;;;;;;;33.97;30.40;;;6.70;99.90;;;;;;4971759;28;20497;-73
2021/11/22 01:31:45;;;;;;;38.67;33.50;;;6.60;99.90;;;;;;4972144;28;21115;-74
2021/11/22 01:34:12;;;;;;;34.57;29.50;;;6.60;99.90;;;;;;4971742;28;20949;-73
2021/11/22 01:36:38;;;;;;;38.00;31.40;;;6.60;99.90;;;;;;4971353;28;20574;-72
2021/11/22 01:39:06;;;;;;;38.00;32.07;;;6.70;99.90;;;;;;4971769;28;20464;-73
2021/11/22 01:41:33;;;;;;;36.47;30.90;;;6.60;99.90;;;;;;4971893;28;20520;-73
2021/11/22 01:44:00;;;;;;;42.50;32.73;;;6.50;99.90;;;;;;4971913;28;20952;-72
2021/11/22 01:46:27;;;;;;;38.43;30.33;;;6.50;99.90;;;;;;4971825;28;20539;-73
2021/11/22 01:48:56;;;;;;;36.40;31.60;;;6.50;99.90;;;;;;4971626;28;20527;-73
2021/11/22 01:51:23;;;;;;;42.07;31.00;;;6.50;99.90;;;;;;4971809;28;20565;-74
2021/11/22 01:53:49;;;;;;;37.50;30.57;;;6.50;99.90;;;;;;4971829;28;20463;-74
2021/11/22 01:56:18;;;;;;;36.00;32.17;;;6.40;99.90;;;;;;4972069;28;20454;-72
2021/11/22 01:58:45;;;;;;;39.10;32.33;;;6.40;99.90;;;;;;4972036;28;20454;-73
2021/11/22 02:01:12;;;;;;;39.40;32.47;;;6.30;99.90;;;;;;4971529;28;20583;-73
2021/11/22 02:03:38;;;;;;;38.67;30.63;;;6.30;99.90;;;;;;4971757;28;20452;-72
2021/11/22 02:06:06;;;;;;;40.47;33.17;;;6.30;99.90;;;;;;4971646;28;20967;-72
2021/11/22 02:08:32;;;;;;;34.80;30.97;;;6.30;99.90;;;;;;4972106;28;20530;-73
2021/11/22 02:10:59;;;;;;;39.33;31.40;;;6.40;99.90;;;;;;4971739;28;20452;-73
2021/11/22 02:13:27;;;;;;;38.33;31.10;;;6.20;99.90;;;;;;4971592;28;20450;-73
2021/11/22 02:15:54;;;;;;;38.60;32.93;;;6.30;99.90;;;;;;4971809;28;20454;-72
2021/11/22 02:18:21;;;;;;;35.83;31.90;;;6.20;99.90;;;;;;4971500;28;20455;-74
2021/11/22 02:20:49;;;;;;;36.07;31.87;;;6.10;99.90;;;;;;4971803;28;20452;-73
2021/11/22 02:23:17;;;;;;;36.90;32.67;;;6.20;99.90;;;;;;4971584;28;20488;-73
2021/11/22 02:25:44;;;;;;;40.40;30.43;;;6.10;99.90;;;;;;4971734;28;20457;-73
2021/11/22 02:28:12;;;;;;;34.97;31.27;;;6.10;99.90;;;;;;4971480;28;20813;-74
2021/11/22 02:30:41;;;;;;;35.63;31.27;;;6.10;99.90;;;;;;4971369;28;20999;-74
2021/11/22 02:33:10;;;;;;;36.23;32.53;;;6.10;99.90;;;;;;4971640;28;20463;-73
2021/11/22 02:35:39;;;;;;;35.33;31.50;;;6.10;99.90;;;;;;4971439;28;20491;-73
2021/11/22 02:38:07;;;;;;;38.83;32.40;;;6.10;99.90;;;;;;4971514;28;20836;-73
2021/11/22 02:40:34;;;;;;;36.00;32.30;;;6.20;99.90;;;;;;4971446;28;20457;-73
2021/11/22 02:43:01;;;;;;;39.00;33.27;;;6.20;99.90;;;;;;4971270;28;20488;-73
2021/11/22 02:45:28;;;;;;;36.13;32.20;;;6.30;99.90;;;;;;4971778;28;20463;-73
2021/11/22 02:47:55;;;;;;;36.90;33.20;;;6.30;99.90;;;;;;4971233;28;20452;-74
2021/11/22 02:50:22;;;;;;;36.03;32.60;;;6.40;99.90;;;;;;4971274;28;21234;-74
2021/11/22 02:52:50;;;;;;;39.63;35.83;;;6.20;99.90;;;;;;4971813;28;20458;-73
2021/11/22 02:55:19;;;;;;;41.10;36.93;;;6.20;99.90;;;;;;4973019;28;20463;-73
2021/11/22 02:57:46;;;;;;;43.37;38.77;;;6.10;99.90;;;;;;4974842;28;20954;-73
2021/11/22 03:00:16;;;;;;;43.03;38.70;;;6.10;99.90;;;;;;4974951;28;20454;-74
2021/11/22 03:02:44;;;;;;;47.27;39.03;;;6.20;99.90;;;;;;4974634;28;20490;-73
2021/11/22 03:05:11;;;;;;;46.23;41.23;;;6.20;99.90;;;;;;4974756;28;20516;-73
2021/11/22 03:07:37;;;;;;;48.47;43.57;;;6.20;99.90;;;;;;4974579;28;20540;-73
2021/11/22 03:10:07;;;;;;;44.37;40.17;;;6.20;99.90;;;;;;4974610;28;20464;-74
2021/11/22 03:12:36;;;;;;;46.10;41.87;;;6.30;99.90;;;;;;4974797;28;20856;-74
2021/11/22 03:15:04;;;;;;;46.87;42.20;;;6.20;99.90;;;;;;4975164;28;20453;-74
2021/11/22 03:17:31;;;;;;;47.17;42.53;;;6.30;99.90;;;;;;4974633;28;20451;-74
2021/11/22 03:19:57;;;;;;;48.83;44.10;;;6.20;99.90;;;;;;4974735;28;20853;-74
2021/11/22 03:22:24;;;;;;;50.80;45.77;;;6.30;99.90;;;;;;4974391;28;20491;-74
2021/11/22 03:24:51;;;;;;;48.00;43.60;;;6.20;99.90;;;;;;4974506;28;20465;-75
2021/11/22 03:27:17;;;;;;;49.73;44.40;;;6.20;99.90;;;;;;4974374;28;20480;-75
2021/11/22 03:29:45;;;;;;;49.87;45.17;;;6.20;99.90;;;;;;4974331;28;20504;-74
2021/11/22 03:32:12;;;;;;;49.77;44.80;;;6.20;99.90;;;;;;4974313;28;20453;-75
2021/11/22 03:34:39;;;;;;;50.27;45.77;;;6.10;99.90;;;;;;4974161;28;20457;-75
2021/11/22 03:37:07;;;;;;;52.20;46.90;;;6.10;99.90;;;;;;4973990;28;20463;-74
2021/11/22 03:39:33;;;;;;;54.23;48.60;;;6.10;99.90;;;;;;4974208;28;20957;-72
2021/11/22 03:42:03;;;;;;;52.43;47.13;;;6.10;99.90;;;;;;4973897;28;20521;-75
2021/11/22 03:44:31;;;;;;;52.40;47.10;;;6.10;99.90;;;;;;4974053;28;20492;-74
2021/11/22 03:47:00;;;;;;;52.87;47.80;;;6.20;99.90;;;;;;4974346;28;20462;-75
2021/11/22 03:49:27;;;;;;;50.67;45.57;;;6.10;99.90;;;;;;4974088;28;20448;-75
2021/11/22 03:51:54;;;;;;;56.00;48.40;;;6.10;99.90;;;;;;4973687;28;21178;-74
2021/11/22 03:54:21;;;;;;;57.03;47.47;;;6.20;99.90;;;;;;4973738;28;20467;-75
2021/11/22 03:56:48;;;;;;;55.33;49.10;;;6.10;99.90;;;;;;4973712;28;20973;-75
2021/11/22 03:59:15;;;;;;;55.13;49.77;;;6.10;99.90;;;;;;4973941;28;20448;-75
2021/11/22 04:01:41;;;;;;;52.77;47.10;;;6.20;99.90;;;;;;4973619;28;20452;-75
2021/11/22 04:04:10;;;;;;;61.70;50.00;;;6.20;99.90;;;;;;4973570;28;20455;-75
2021/11/22 04:06:36;;;;;;;55.03;49.33;;;6.20;99.90;;;;;;4972379;28;21206;-75
2021/11/22 04:09:04;;;;;;;54.47;48.57;;;6.30;99.90;;;;;;4973277;28;20463;-75
2021/11/22 04:11:30;;;;;;;57.90;51.03;;;6.20;99.90;;;;;;4973863;28;20814;-75
2021/11/22 04:13:57;;;;;;;55.70;49.87;;;6.20;99.90;;;;;;4973516;28;20530;-76
2021/11/22 04:16:24;;;;;;;55.37;49.53;;;6.10;99.90;;;;;;4973351;28;20455;-75
2021/11/22 04:18:52;;;;;;;63.73;50.03;;;6.10;99.90;;;;;;4973271;28;20449;-75
2021/11/22 04:21:24;;;;;;;55.03;49.23;;;6.10;99.90;;;;;;4973338;28;20449;-76
2021/11/22 04:23:51;;;;;;;56.20;50.27;;;6.10;99.90;;;;;;4973099;28;20515;-74
2021/11/22 04:26:18;;;;;;;56.87;51.30;;;6.20;99.90;;;;;;4973125;28;20453;-76
2021/11/22 04:28:45;;;;;;;60.10;53.60;;;6.20;99.90;;;;;;4973227;28;20517;-76
2021/11/22 04:31:13;;;;;;;56.80;51.20;;;6.20;99.90;;;;;;4973006;28;20457;-75
2021/11/22 04:33:40;;;;;;;58.73;53.13;;;6.10;99.90;;;;;;4972994;28;20959;-73
2021/11/22 04:36:09;;;;;;;59.57;53.43;;;6.20;99.90;;;;;;4973087;28;20449;-72
2021/11/22 04:38:38;;;;;;;58.07;51.97;;;6.20;99.90;;;;;;4978553;28;20964;-74
2021/11/22 04:41:04;;;;;;;58.60;52.43;;;6.10;99.90;;;;;;4980960;28;20447;-74
2021/11/22 04:43:31;;;;;;;57.27;51.73;;;6.10;99.90;;;;;;4982347;28;20495;-75
2021/11/22 04:45:58;;;;;;;57.90;52.10;;;6.00;99.90;;;;;;4980836;28;20451;-75
2021/11/22 04:48:25;;;;;;;56.80;50.97;;;6.10;99.90;;;;;;4980888;28;20457;-75
2021/11/22 04:50:52;;;;;;;57.40;51.70;;;6.10;99.90;;;;;;4982181;28;20576;-75
2021/11/22 04:53:19;;;;;;;54.40;48.97;;;6.10;99.90;;;;;;4980799;28;20449;-75
2021/11/22 04:55:47;;;;;;;56.93;51.23;;;6.20;99.90;;;;;;4980594;28;20828;-74
2021/11/22 04:58:13;;;;;;;58.03;52.60;;;6.30;99.90;;;;;;4982049;28;20455;-75
2021/11/22 05:00:40;;;;;;;57.80;51.60;;;6.20;99.90;;;;;;4982043;28;20451;-74
2021/11/22 05:03:08;;;;;;;55.10;49.97;;;6.40;99.90;;;;;;4980405;28;20493;-74
2021/11/22 05:05:35;;;;;;;54.50;48.97;;;6.30;99.90;;;;;;4980363;28;20487;-73
2021/11/22 05:08:06;;;;;;;54.80;49.70;;;6.30;99.90;;;;;;4981977;28;20446;-73
2021/11/22 05:10:35;;;;;;;54.20;49.07;;;6.40;99.90;;;;;;4981359;28;20454;-73
2021/11/22 05:13:05;;;;;;;56.27;50.87;;;6.40;99.90;;;;;;4979794;28;20449;-73
2021/11/22 05:15:32;;;;;;;55.07;50.10;;;6.40;99.90;;;;;;4980634;28;20453;-73
2021/11/22 05:17:59;;;;;;;56.27;50.20;;;6.40;99.90;;;;;;4981189;28;20449;-72
2021/11/22 05:20:26;;;;;;;54.93;49.80;;;6.50;99.90;;;;;;4979431;28;21022;-73
2021/11/22 05:22:53;;;;;;;56.97;51.37;;;6.50;99.90;;;;;;4980221;28;20517;-73
2021/11/22 05:25:19;;;;;;;56.70;50.87;;;6.40;99.90;;;;;;4980280;28;20457;-74
2021/11/22 05:27:46;;;;;;;59.87;53.80;;;6.40;99.90;;;;;;4981439;28;20458;-75
2021/11/22 05:30:15;;;;;;;55.43;49.77;;;6.50;99.90;;;;;;4979918;28;20478;-73
2021/11/22 05:32:42;;;;;;;57.60;52.10;;;6.50;99.90;;;;;;4979840;28;20475;-73
2021/11/22 05:35:09;;;;;;;55.30;50.10;;;6.60;99.90;;;;;;4981441;28;20448;-73
2021/11/22 05:37:36;;;;;;;56.47;51.33;;;6.60;99.90;;;;;;4980367;28;20454;-73
2021/11/22 05:40:04;;;;;;;56.30;50.60;;;6.60;99.90;;;;;;4979433;28;20452;-74
2021/11/22 05:42:31;;;;;;;55.37;49.73;;;6.50;99.90;;;;;;4979800;28;20454;-74
2021/11/22 05:44:58;;;;;;;55.60;50.60;;;6.40;99.90;;;;;;4980421;28;20456;-75
2021/11/22 05:47:26;;;;;;;55.73;50.73;;;6.40;99.90;;;;;;4981222;28;20444;-75
2021/11/22 05:49:55;;;;;;;57.37;51.80;;;6.30;99.90;;;;;;4979455;28;20612;-76
2021/11/22 05:52:23;;;;;;;54.03;49.33;;;6.30;99.90;;;;;;4979316;28;20956;-73
2021/11/22 05:54:52;;;;;;;54.70;49.70;;;6.30;99.90;;;;;;4981619;28;20531;-73
2021/11/22 05:57:19;;;;;;;55.53;50.27;;;6.30;99.90;;;;;;4980453;28;20501;-74
2021/11/22 05:59:46;;;;;;;53.63;48.80;;;6.30;99.90;;;;;;4981918;28;20450;-74
2021/11/22 06:02:13;;;;;;;54.53;49.37;;;6.30;99.90;;;;;;4991159;28;20824;-75
2021/11/22 06:04:42;;;;;;;62.03;55.87;;;6.30;99.90;;;;;;4990933;28;20859;-75
2021/11/22 06:07:09;;;;;;;56.50;51.20;;;6.30;99.90;;;;;;4990977;28;20495;-75
2021/11/22 06:09:36;;;;;;;57.20;51.60;;;6.30;99.90;;;;;;4991129;28;20469;-74
2021/11/22 06:12:04;;;;;;;55.80;50.80;;;6.40;99.90;;;;;;4990835;28;20466;-75
2021/11/22 06:14:30;;;;;;;58.57;53.17;;;6.40;99.90;;;;;;4980653;28;20450;-78
2021/11/22 06:16:57;;;;;;;55.10;50.20;;;6.40;99.90;;;;;;4980493;28;20453;-77
2021/11/22 06:19:24;;;;;;;54.93;50.23;;;6.40;99.90;;;;;;4978939;28;20441;-77
2021/11/22 06:21:52;;;;;;;55.20;50.10;;;6.40;99.90;;;;;;4981021;28;20571;-78
2021/11/22 06:24:19;;;;;;;53.90;49.03;;;6.50;99.90;;;;;;4980674;28;20487;-77
2021/11/22 06:26:45;;;;;;;57.07;51.77;;;6.50;99.90;;;;;;4978860;28;20853;-75
2021/11/22 06:29:17;;;;;;;54.20;49.90;;;6.50;99.90;;;;;;4980462;28;20502;-76
2021/11/22 06:31:44;;;;;;;54.40;49.67;;;6.50;99.90;;;;;;4984754;28;20455;-76
2021/11/22 06:34:10;;;;;;;52.30;47.80;;;6.50;99.90;;;;;;4983148;28;20446;-76
2021/11/22 06:36:38;;;;;;;52.43;48.10;;;6.50;99.90;;;;;;4983646;28;20448;-76
2021/11/22 06:39:06;;;;;;;52.23;47.90;;;6.40;99.90;;;;;;4984528;28;20437;-76
2021/11/22 06:41:33;;;;;;;51.50;47.10;;;6.50;99.90;;;;;;4982895;28;20461;-76
2021/11/22 06:43:59;;;;;;;52.53;48.23;;;6.40;99.90;;;;;;4983097;28;20471;-76
2021/11/22 06:46:26;;;;;;;54.27;49.37;;;6.50;99.90;;;;;;4984580;28;20453;-76
2021/11/22 06:48:53;;;;;;;54.33;49.60;;;6.50;99.90;;;;;;4982977;28;20457;-76
2021/11/22 06:51:20;;;;;;;55.20;50.20;;;6.50;99.90;;;;;;4982742;28;20476;-76
2021/11/22 06:53:47;;;;;;;53.00;48.57;;;6.50;99.90;;;;;;4984633;28;20450;-76
2021/11/22 06:56:15;;;;;;;51.03;46.93;;;6.50;99.90;;;;;;4982963;28;20451;-75
2021/11/22 06:58:41;;;;;;;54.03;49.33;;;6.60;99.90;;;;;;4983004;28;20452;-76
2021/11/22 07:01:08;;;;;;;52.07;47.67;;;6.50;99.90;;;;;;4984070;28;20440;-76
2021/11/22 07:03:35;;;;;;;50.80;46.67;;;6.50;99.90;;;;;;4982721;28;20493;-76
2021/11/22 07:06:03;;;;;;;54.83;49.73;;;6.40;99.90;;;;;;4982431;28;20456;-75
2021/11/22 07:08:31;;;;;;;53.67;49.17;;;6.50;99.90;;;;;;4982799;28;20459;-75
2021/11/22 07:10:58;;;;;;;50.90;46.40;;;6.40;99.90;;;;;;4983152;28;20451;-76
2021/11/22 07:13:26;;;;;;;51.40;47.40;;;6.50;99.90;;;;;;4984247;28;20920;-75
2021/11/22 07:15:53;;;;;;;51.50;47.40;;;6.40;99.90;;;;;;4983363;28;20447;-76
2021/11/22 07:18:20;;;;;;;52.20;47.70;;;6.40;99.90;;;;;;4982747;28;20508;-76
2021/11/22 07:20:47;;;;;;;51.93;47.63;;;6.40;99.90;;;;;;4981854;28;20450;-74
2021/11/22 07:23:15;;;;;;;50.63;46.73;;;6.40;99.90;;;;;;4983188;28;20592;-75
2021/11/22 07:25:42;;;;;;;51.30;47.20;;;6.40;99.90;;;;;;4983578;28;20480;-76
2021/11/22 07:28:09;;;;;;;49.47;45.37;;;6.40;99.90;;;;;;4981631;28;20469;-76
2021/11/22 07:30:37;;;;;;;51.70;47.40;;;6.40;99.90;;;;;;4977655;28;20474;-75
2021/11/22 07:33:04;;;;;;;48.33;44.80;;;6.50;99.90;;;;;;4974123;28;20453;-75
2021/11/22 07:35:31;;;;;;;47.93;44.17;;;6.60;99.90;;;;;;4974071;28;20527;-76
2021/11/22 07:37:58;;;;;;;48.03;44.53;;;6.60;99.90;;;;;;4974226;28;20448;-76
2021/11/22 07:40:25;;;;;;;49.80;46.00;;;6.60;99.90;;;;;;4973725;28;20500;-77
2021/11/22 07:42:54;;;;;;;47.20;43.53;;;6.60;99.90;;;;;;4973589;28;20462;-78
2021/11/22 07:45:21;;;;;;;46.30;43.00;;;6.60;99.90;;;;;;4974111;28;20825;-77
2021/11/22 07:47:50;;;;;;;49.33;45.77;;;6.70;99.90;;;;;;4974248;28;20462;-76
2021/11/22 07:50:17;;;;;;;45.97;42.67;;;6.70;99.90;;;;;;4974389;28;20941;-76
2021/11/22 07:52:44;;;;;;;47.63;43.73;;;6.80;99.90;;;;;;4974393;28;20512;-77
2021/11/22 07:55:11;;;;;;;49.27;45.70;;;6.70;99.90;;;;;;4973675;28;20460;-77
2021/11/22 07:57:38;;;;;;;47.90;44.40;;;6.70;99.90;;;;;;4973628;28;20460;-76
2021/11/22 08:00:06;;;;;;;46.27;42.63;;;6.80;99.90;;;;;;4973904;28;20798;-77
2021/11/22 08:02:34;;;;;;;48.67;45.13;;;6.80;99.90;;;;;;4973405;28;20457;-76
2021/11/22 08:05:03;;;;;;;48.33;44.63;;;6.90;99.90;;;;;;4973406;28;21009;-76
2021/11/22 08:07:31;;;;;;;48.40;44.97;;;6.90;99.90;;;;;;4973913;28;20455;-76
2021/11/22 08:10:00;;;;;;;48.30;44.70;;;7.00;99.90;;;;;;4973515;28;20462;-77
2021/11/22 08:12:28;;;;;;;48.43;44.93;;;7.00;99.90;;;;;;4973182;28;20907;-77
2021/11/22 08:14:58;;;;;;;47.90;44.20;;;7.10;99.90;;;;;;4973277;28;20550;-77
2021/11/22 08:17:26;;;;;;;45.67;42.30;;;7.20;99.90;;;;;;4972834;28;20443;-77
2021/11/22 08:19:53;;;;;;;48.60;45.10;;;7.30;99.90;;;;;;4973084;28;20937;-76
2021/11/22 08:22:22;;;;;;;47.53;44.07;;;7.40;99.90;;;;;;4973125;28;20484;-79
2021/11/22 08:24:52;;;;;;;49.63;45.77;;;7.40;99.90;;;;;;4973112;28;21084;-76
2021/11/22 08:27:20;;;;;;;47.07;43.57;;;7.40;99.90;;;;;;4973015;28;20485;-77
2021/11/22 08:29:47;;;;;;;46.00;42.80;;;7.40;99.90;;;;;;4973073;28;20543;-78
2021/11/22 08:32:15;;;;;;;46.57;43.43;;;7.40;99.90;;;;;;4973152;28;20459;-79
2021/11/22 08:34:41;;;;;;;45.27;42.27;;;7.50;99.90;;;;;;4972833;28;20478;-76
2021/11/22 08:37:08;;;;;;;48.87;45.10;;;7.50;99.90;;;;;;4973026;28;20941;-76
2021/11/22 08:39:37;;;;;;;47.53;44.20;;;7.40;99.90;;;;;;4972914;28;20451;-72
2021/11/22 08:42:05;;;;;;;45.93;42.53;;;7.30;99.90;;;;;;4972808;28;20464;-73
2021/11/22 08:44:33;;;;;;;46.37;43.07;;;7.30;99.90;;;;;;4972684;28;20546;-73
2021/11/22 08:47:00;;;;;;;44.73;41.63;;;7.40;99.90;;;;;;4975526;28;20457;-73
2021/11/22 08:49:28;;;;;;;44.60;41.20;;;7.40;99.90;;;;;;4992199;28;20980;-76
2021/11/22 08:51:55;;;;;;;45.50;42.20;;;7.40;99.90;;;;;;4991925;28;20465;-77
2021/11/22 08:54:22;;;;;;;45.17;41.93;;;7.40;99.90;;;;;;4991637;28;20450;-77
2021/11/22 08:56:50;;;;;;;45.30;41.93;;;7.40;99.90;;;;;;4985519;28;20447;-76
2021/11/22 08:59:18;;;;;;;46.57;43.07;;;7.40;99.90;;;;;;4979613;28;20452;-75
2021/11/22 09:01:45;;;;;;;47.70;44.13;;;7.30;99.90;;;;;;4981102;28;20447;-76
2021/11/22 09:04:14;;;;;;;46.57;42.60;;;7.40;99.90;;;;;;4980913;28;20483;-76
2021/11/22 09:06:40;;;;;;;46.50;43.10;;;7.50;99.90;;;;;;4979380;28;20458;-75
2021/11/22 09:09:09;;;;;;;46.10;42.70;;;7.60;99.90;;;;;;4973644;28;20852;-76
2021/11/22 09:11:37;;;;;;;46.20;42.77;;;7.60;99.90;;;;;;4971944;28;21001;-76
2021/11/22 09:14:06;;;;;;;46.47;43.17;;;7.60;99.90;;;;;;4971903;28;20471;-76
2021/11/22 09:16:33;;;;;;;47.20;43.77;;;7.50;99.90;;;;;;4971818;28;20527;-76
2021/11/22 09:19:02;;;;;;;44.47;41.37;;;7.60;99.90;;;;;;4971972;28;20464;-75
2021/11/22 09:21:29;;;;;;;45.13;41.73;;;7.60;99.90;;;;;;4976089;28;20542;-75
2021/11/22 09:23:57;;;;;;;45.83;42.50;;;7.60;99.90;;;;;;4978330;28;20574;-77
2021/11/22 09:26:24;;;;;;;45.93;42.33;;;7.60;99.90;;;;;;4976206;28;20486;-76
2021/11/22 09:28:51;;;;;;;45.50;42.20;;;7.60;99.90;;;;;;4971994;28;20498;-77
2021/11/22 09:31:20;;;;;;;45.10;41.70;;;7.70;99.90;;;;;;4972208;28;20461;-76
2021/11/22 09:33:50;;;;;;;45.23;41.37;;;7.70;99.90;;;;;;4972444;28;20454;-76
2021/11/22 09:36:17;;;;;;;44.20;41.10;;;7.80;99.90;;;;;;4972423;28;20541;-77
2021/11/22 09:38:44;;;;;;;46.60;42.97;;;7.70;99.90;;;;;;4972435;28;20451;-76
2021/11/22 09:41:11;;;;;;;44.87;41.47;;;7.70;99.90;;;;;;4972188;28;20455;-76
2021/11/22 09:43:38;;;;;;;47.40;43.70;;;7.80;99.90;;;;;;4972138;28;20451;-76
2021/11/22 09:46:05;;;;;;;43.23;39.83;;;7.80;99.90;;;;;;4972111;28;20463;-77
2021/11/22 09:48:33;;;;;;;45.80;42.60;;;8.00;99.90;;;;;;4972319;28;20454;-76
2021/11/22 09:51:00;;;;;;;43.90;40.67;;;8.20;99.90;;;;;;4972160;28;20454;-76
2021/11/22 09:53:27;;;;;;;46.57;43.27;;;8.30;99.90;;;;;;4972140;28;20818;-76
2021/11/22 09:55:54;;;;;;;45.90;42.70;;;8.30;99.90;;;;;;4971880;28;20554;-75
2021/11/22 09:58:21;;;;;;;44.60;41.30;;;8.20;99.90;;;;;;4971989;28;20459;-75
2021/11/22 10:00:51;;;;;;;46.07;42.67;;;8.30;99.90;;;;;;4971949;28;20455;-75
2021/11/22 10:03:19;;;;;;;45.47;41.90;;;8.30;99.90;;;;;;4971777;28;20463;-76
2021/11/22 10:05:54;;;;;;;45.17;41.87;;;8.40;99.90;;;;;;4974594;28;20499;-76
2021/11/22 10:08:22;;;;;;;45.57;42.40;;;8.20;99.90;;;;;;4975666;28;20447;-75
2021/11/22 10:10:51;;;;;;;44.47;41.47;;;8.30;99.90;;;;;;4975654;28;20467;-76
2021/11/22 10:13:27;;;;;;;44.63;41.30;;;8.30;99.90;;;;;;4975660;28;20483;-76
2021/11/22 10:15:57;;;;;;;44.40;41.50;;;8.30;99.90;;;;;;4975370;28;20471;-76
2021/11/22 10:18:25;;;;;;;44.53;41.10;;;8.30;99.90;;;;;;4975962;28;21145;-75
2021/11/22 10:20:54;;;;;;;45.23;42.20;;;8.40;99.90;;;;;;4982759;28;20539;-75
2021/11/22 10:23:22;;;;;;;45.73;42.10;;;8.50;99.90;;;;;;4983981;28;20443;-77
2021/11/22 10:25:49;;;;;;;45.57;42.37;;;8.60;99.90;;;;;;4992342;28;20490;-76
2021/11/22 10:28:18;;;;;;;44.63;41.70;;;8.80;99.90;;;;;;4995026;28;20474;-76
2021/11/22 10:30:47;;;;;;;41.37;38.60;;;8.90;99.90;;;;;;4995429;28;20459;-76
2021/11/22 10:33:16;;;;;;;44.30;41.03;;;9.00;99.90;;;;;;4995320;28;20454;-76
2021/11/22 10:35:45;;;;;;;41.47;38.40;;;9.20;99.90;;;;;;4995320;28;20450;-76
2021/11/22 10:38:15;;;;;;;41.20;38.40;;;9.30;99.90;;;;;;4995243;28;20520;-75
2021/11/22 10:40:45;;;;;;;39.97;37.47;;;9.40;99.90;;;;;;4995340;28;20463;-77
2021/11/22 10:43:12;;;;;;;39.30;36.73;;;9.40;99.90;;;;;;4995137;28;20454;-76
2021/11/22 10:45:40;;;;;;;39.10;36.70;;;9.40;99.90;;;;;;4993396;28;20863;-75
2021/11/22 10:48:25;;;;;;;41.47;38.50;;;9.20;99.90;;;;;;4994359;28;20443;-76
2021/11/22 10:51:12;;;;;;;40.83;38.00;;;9.30;99.90;;;;;;4993795;28;21000;-76
2021/11/22 10:53:43;;;;;;;42.40;39.30;;;9.10;99.90;;;;;;4994862;28;20561;-76
2021/11/22 10:56:13;;;;;;;41.00;38.33;;;8.80;99.90;;;;;;4994739;28;20431;-76
2021/11/22 10:58:50;;;;;;;41.17;38.27;;;8.70;99.90;;;;;;4994868;28;20455;-75
2021/11/22 11:01:33;;;;;;;41.67;38.60;;;8.70;99.90;;;;;;4994797;28;20446;-75
2021/11/22 11:04:04;;;;;;;42.30;39.40;;;8.60;99.90;;;;;;4994720;28;20809;-76
2021/11/22 11:06:38;;;;;;;43.03;39.93;;;8.50;99.90;;;;;;4995039;28;20447;-75
2021/11/22 11:09:09;;;;;;;45.53;41.80;;;8.50;99.90;;;;;;4994729;28;20462;-75
2021/11/22 11:11:36;;;;;;;41.90;39.30;;;8.40;99.90;;;;;;4994617;28;20450;-76
2021/11/22 11:14:09;;;;;;;45.00;42.10;;;8.30;99.90;;;;;;4994629;28;20825;-76
2021/11/22 11:16:37;;;;;;;44.37;41.27;;;8.30;99.90;;;;;;4993964;28;20457;-76
2021/11/22 11:19:06;;;;;;;45.63;42.33;;;8.30;99.90;;;;;;4994602;28;20465;-76
2021/11/22 11:21:36;;;;;;;42.70;39.97;;;8.40;99.90;;;;;;4994313;28;20455;-75
2021/11/22 11:24:04;;;;;;;43.20;39.90;;;8.40;99.90;;;;;;4994444;28;20446;-75
2021/11/22 11:26:34;;;;;;;44.67;41.40;;;8.30;99.90;;;;;;4994406;28;20466;-75
2021/11/22 11:29:01;;;;;;;42.00;39.30;;;8.20;99.90;;;;;;4994244;28;20486;-76
2021/11/22 11:31:28;;;;;;;42.80;39.70;;;8.30;99.90;;;;;;4993926;28;20550;-75
2021/11/22 11:33:56;;;;;;;43.47;40.67;;;8.40;99.90;;;;;;4994111;28;20455;-76
2021/11/22 11:36:44;;;;;;;41.73;39.10;;;8.40;99.90;;;;;;4993879;28;20454;-76
2021/11/22 11:39:25;;;;;;;41.40;38.60;;;8.40;99.90;;;;;;4981715;28;20964;-75
2021/11/22 11:42:02;;;;;;;40.93;38.23;;;8.30;99.90;;;;;;4981852;28;20455;-75
2021/11/22 11:44:41;;;;;;;40.80;38.30;;;8.30;99.90;;;;;;4982250;28;20487;-75
2021/11/22 11:47:21;;;;;;;40.30;37.87;;;8.40;99.90;;;;;;4983487;28;20451;-76
2021/11/22 11:49:47;;;;;;;38.67;36.17;;;8.30;99.90;;;;;;4982959;28;20815;-76
2021/11/22 11:52:22;;;;;;;37.53;35.37;;;8.20;99.90;;;;;;4981934;28;20532;-76
2021/11/22 11:54:49;;;;;;;36.80;34.60;;;8.20;99.90;;;;;;4981779;28;20447;-74
2021/11/22 11:57:20;;;;;;;38.00;35.50;;;8.30;99.90;;;;;;4981683;28;20444;-74
2021/11/22 11:59:47;;;;;;;37.00;34.50;;;8.30;99.90;;;;;;4982491;28;20447;-74
2021/11/22 12:02:25;;;;;;;37.90;35.63;;;8.30;99.90;;;;;;4983657;28;20522;-75
2021/11/22 12:04:57;;;;;;;39.03;36.43;;;8.30;99.90;;;;;;4983434;28;20868;-75
2021/11/22 12:07:26;;;;;;;37.10;34.90;;;8.30;99.90;;;;;;4982613;28;20510;-75
2021/11/22 12:10:06;;;;;;;36.77;34.33;;;8.30;99.90;;;;;;4981433;28;20506;-74
2021/11/22 12:12:37;;;;;;;38.17;35.50;;;8.50;99.90;;;;;;4981353;28;21045;-74
2021/11/22 12:15:05;;;;;;;37.33;35.03;;;8.30;99.90;;;;;;4982377;28;20443;-74
2021/11/22 12:17:55;;;;;;;36.07;33.90;;;8.20;99.90;;;;;;4983314;28;20447;-74
2021/11/22 12:20:49;;;;;;;34.83;32.83;;;8.20;99.90;;;;;;4982040;28;20447;-74
2021/11/22 12:23:20;;;;;;;34.30;32.20;;;8.10;99.90;;;;;;4983222;28;20476;-75
2021/11/22 12:25:50;;;;;;;33.93;31.80;;;8.00;99.90;;;;;;4982621;28;20997;-74
2021/11/22 12:28:52;;;;;;;34.50;32.20;;;8.00;99.90;;;;;;4980184;28;20477;-74
2021/11/22 12:31:26;;;;;;;32.90;30.90;;;7.80;99.90;;;;;;4973651;28;20502;-74
2021/11/22 12:34:12;;;;;;;32.20;30.40;;;7.80;99.90;;;;;;4973516;28;21172;-75
2021/11/22 12:36:48;;;;;;;31.20;29.33;;;7.80;99.90;;;;;;4978714;28;20443;-74
2021/11/22 12:39:26;;;;;;;31.23;29.17;;;7.70;99.90;;;;;;4981044;28;20450;-73
2021/11/22 12:42:14;;;;;;;30.93;28.70;;;7.70;99.90;;;;;;4982660;28;20442;-74